地図

経路データ

SID SEASON NUMBER BASIN SUBBASIN NAME ISO_TIME NATURE LAT LON WMO_WIND WMO_PRES WMO_AGENCY TRACK_TYPE DIST2LAND LANDFALL IFLAG USA_AGENCY USA_ATCF_ID USA_LAT USA_LON USA_RECORD USA_STATUS USA_WIND USA_PRES USA_SSHS USA_R34_NE USA_R34_SE USA_R34_SW USA_R34_NW USA_R50_NE USA_R50_SE USA_R50_SW USA_R50_NW USA_R64_NE USA_R64_SE USA_R64_SW USA_R64_NW USA_POCI USA_ROCI USA_RMW USA_EYE TOKYO_LAT TOKYO_LON TOKYO_GRADE TOKYO_WIND TOKYO_PRES TOKYO_R50_DIR TOKYO_R50_LONG TOKYO_R50_SHORT TOKYO_R30_DIR TOKYO_R30_LONG TOKYO_R30_SHORT TOKYO_LAND CMA_LAT CMA_LON CMA_CAT CMA_WIND CMA_PRES HKO_LAT HKO_LON HKO_CAT HKO_WIND HKO_PRES NEWDELHI_LAT NEWDELHI_LON NEWDELHI_GRADE NEWDELHI_WIND NEWDELHI_PRES NEWDELHI_CI NEWDELHI_DP NEWDELHI_POCI REUNION_LAT REUNION_LON REUNION_TYPE REUNION_WIND REUNION_PRES REUNION_TNUM REUNION_CI REUNION_RMW REUNION_R34_NE REUNION_R34_SE REUNION_R34_SW REUNION_R34_NW REUNION_R50_NE REUNION_R50_SE REUNION_R50_SW REUNION_R50_NW REUNION_R64_NE REUNION_R64_SE REUNION_R64_SW REUNION_R64_NW BOM_LAT BOM_LON BOM_TYPE BOM_WIND BOM_PRES BOM_TNUM BOM_CI BOM_RMW BOM_R34_NE BOM_R34_SE BOM_R34_SW BOM_R34_NW BOM_R50_NE BOM_R50_SE BOM_R50_SW BOM_R50_NW BOM_R64_NE BOM_R64_SE BOM_R64_SW BOM_R64_NW BOM_ROCI BOM_POCI BOM_EYE BOM_POS_METHOD BOM_PRES_METHOD NADI_LAT NADI_LON NADI_CAT NADI_WIND NADI_PRES WELLINGTON_LAT WELLINGTON_LON WELLINGTON_WIND WELLINGTON_PRES DS824_LAT DS824_LON DS824_STAGE DS824_WIND DS824_PRES TD9636_LAT TD9636_LON TD9636_STAGE TD9636_WIND TD9636_PRES TD9635_LAT TD9635_LON TD9635_WIND TD9635_PRES TD9635_ROCI NEUMANN_LAT NEUMANN_LON NEUMANN_CLASS NEUMANN_WIND NEUMANN_PRES MLC_LAT MLC_LON MLC_CLASS MLC_WIND MLC_PRES USA_GUST BOM_GUST BOM_GUST_PER REUNION_GUST REUNION_GUST_PER USA_SEAHGT USA_SEARAD_NE USA_SEARAD_SE USA_SEARAD_SW USA_SEARAD_NW STORM_SPEED STORM_DIR
1943270N12155 1943 66 WP MM NOT_NAMED 1943-09-27 09:00:00 NR 12.3000 155.000 main 1740 1737 __________O___ -1 12.3000 155.000 4 4 308
1943270N12155 1943 66 WP MM NOT_NAMED 1943-09-27 12:00:00 NR 12.4293 154.833 main 1745 1745 __________P___ -1 12.4293 154.833 4 5 308
1943270N12155 1943 66 WP MM NOT_NAMED 1943-09-27 15:00:00 NR 12.5870 154.624 main 1762 1759 __________P___ -1 12.5870 154.624 4 6 307
1943270N12155 1943 66 WP MM NOT_NAMED 1943-09-27 18:00:00 NR 12.8012 154.327 main 1776 1776 __________P___ -1 12.8012 154.327 4 9 306
1943270N12155 1943 66 WP MM NOT_NAMED 1943-09-27 21:00:00 NR 13.1000 153.900 main 1800 1798 __________O___ -1 13.1000 153.900 4 12 305
1943270N12155 1943 66 WP MM NOT_NAMED 1943-09-28 00:00:00 NR 13.4971 153.312 main 1834 1832 __________P___ -1 13.4971 153.312 4 15 304
1943270N12155 1943 66 WP MM NOT_NAMED 1943-09-28 03:00:00 NR 13.9502 152.589 main 1880 1879 __________P___ -1 13.9502 152.589 4 18 301
1943270N12155 1943 66 WP MM NOT_NAMED 1943-09-28 06:00:00 NR 14.4031 151.771 main 1911 1908 __________P___ -1 14.4031 151.771 4 18 297
1943270N12155 1943 66 WP MM NOT_NAMED 1943-09-28 09:00:00 NR 14.8000 150.900 main 1932 1929 __________O___ -1 14.8000 150.900 4 19 291
1943270N12155 1943 66 WP MM NOT_NAMED 1943-09-28 12:00:00 NR 15.0821 149.982 main 1948 1943 __________P___ -1 15.0821 149.982 4 19 285
1943270N12155 1943 66 WP MM NOT_NAMED 1943-09-28 15:00:00 NR 15.2993 149.032 main 1957 1955 __________P___ -1 15.2993 149.032 4 18 282
1943270N12155 1943 66 WP MM NOT_NAMED 1943-09-28 18:00:00 NR 15.4666 148.116 main 1973 1971 __________P___ -1 15.4666 148.116 4 17 280
1943270N12155 1943 66 WP MM NOT_NAMED 1943-09-28 21:00:00 NR 15.6000 147.300 main 1982 1982 __________O___ -1 15.6000 147.300 4 14 279
1943270N12155 1943 66 WP MM NOT_NAMED 1943-09-29 00:00:00 NR 15.6781 146.657 main 1994 1994 __________P___ -1 15.6781 146.657 4 11 277
1943270N12155 1943 66 WP MM NOT_NAMED 1943-09-29 03:00:00 NR 15.7377 146.120 main 1994 1994 __________P___ -1 15.7377 146.120 4 10 279
1943270N12155 1943 66 WP MM NOT_NAMED 1943-09-29 06:00:00 NR 15.8286 145.648 main 2008 2008 __________P___ -1 15.8286 145.648 4 9 286
1943270N12155 1943 66 WP MM NOT_NAMED 1943-09-29 09:00:00 NR 16.0000 145.200 main 2033 2033 __________O___ -1 16.0000 145.200 4 11 298
1943270N12155 1943 66 WP MM NOT_NAMED 1943-09-29 12:00:00 NR 16.3260 144.667 main 2071 2046 __________P___ -1 16.3260 144.667 4 12 306
1943270N12155 1943 66 WP MM NOT_NAMED 1943-09-29 15:00:00 NR 16.7328 144.154 main 2046 1984 __________P___ -1 16.7328 144.154 4 13 312
1943270N12155 1943 66 WP MM NOT_NAMED 1943-09-29 18:00:00 NR 17.1731 143.689 main 1974 1916 __________P___ -1 17.1731 143.689 4 12 317
1943270N12155 1943 66 WP MM NOT_NAMED 1943-09-29 21:00:00 NR 17.6000 143.300 main 1916 1877 __________O___ -1 17.6000 143.300 4 10 321
1943270N12155 1943 66 WP MM NOT_NAMED 1943-09-30 00:00:00 NR 17.9497 143.040 main 1874 1828 __________P___ -1 17.9497 143.040 4 8 328
1943270N12155 1943 66 WP MM NOT_NAMED 1943-09-30 03:00:00 NR 18.2788 142.853 main 1828 1789 __________P___ -1 18.2788 142.853 4 7 333
1943270N12155 1943 66 WP MM NOT_NAMED 1943-09-30 06:00:00 NR 18.5936 142.690 main 1789 1750 __________P___ -1 18.5936 142.690 4 7 332
1943270N12155 1943 66 WP MM NOT_NAMED 1943-09-30 09:00:00 NR 18.9000 142.500 main 1750 1708 __________O___ -1 18.9000 142.500 4 7 322
1943270N12155 1943 66 WP MM NOT_NAMED 1943-09-30 12:00:00 NR 19.1707 142.210 main 1708 1676 __________P___ -1 19.1707 142.210 4 8 313
1943270N12155 1943 66 WP MM NOT_NAMED 1943-09-30 15:00:00 NR 19.4402 141.886 main 1676 1634 __________P___ -1 19.4402 141.886 4 9 312
1943270N12155 1943 66 WP MM NOT_NAMED 1943-09-30 18:00:00 NR 19.7395 141.544 main 1630 1578 __________P___ -1 19.7395 141.544 4 9 316
1943270N12155 1943 66 WP MM NOT_NAMED 1943-09-30 21:00:00 NR 20.1000 141.200 main 1578 1525 __________O___ -1 20.1000 141.200 4 10 322
1943270N12155 1943 66 WP MM NOT_NAMED 1943-10-01 00:00:00 NR 20.5318 140.878 main 1525 1463 __________P___ -1 20.5318 140.878 4 11 327
1943270N12155 1943 66 WP MM NOT_NAMED 1943-10-01 03:00:00 NR 21.0298 140.556 main 1463 1386 __________P___ -1 21.0298 140.556 4 12 330
1943270N12155 1943 66 WP MM NOT_NAMED 1943-10-01 06:00:00 NR 21.5880 140.231 main 1386 1313 __________P___ -1 21.5880 140.231 4 13 332
1943270N12155 1943 66 WP MM NOT_NAMED 1943-10-01 09:00:00 NR 22.2000 139.900 main 1313 1237 __________O___ -1 22.2000 139.900 4 14 332
1943270N12155 1943 66 WP MM NOT_NAMED 1943-10-01 12:00:00 NR 22.8015 139.521 main 1237 1164 __________P___ -1 22.8015 139.521 4 14 331
1943270N12155 1943 66 WP MM NOT_NAMED 1943-10-01 15:00:00 NR 23.4584 139.141 main 1151 1078 __________P___ -1 23.4584 139.141 4 15 334
1943270N12155 1943 66 WP MM NOT_NAMED 1943-10-01 18:00:00 NR 24.1860 138.790 main 1067 973 __________P___ -1 24.1860 138.790 4 17 339
1943270N12155 1943 66 WP MM NOT_NAMED 1943-10-01 21:00:00 NR 25.0000 138.500 main 973 871 __________O___ -1 25.0000 138.500 4 18 345
1943270N12155 1943 66 WP MM NOT_NAMED 1943-10-02 00:00:00 NR 25.9215 138.263 main 871 758 __________P___ -1 25.9215 138.263 4 20 349
1943270N12155 1943 66 WP MM NOT_NAMED 1943-10-02 03:00:00 NR 26.9247 138.095 main 758 648 __________P___ -1 26.9247 138.095 4 21 354
1943270N12155 1943 66 WP MM NOT_NAMED 1943-10-02 06:00:00 NR 27.9655 138.004 main 638 543 __________P___ -1 27.9655 138.004 4 21 358
1943270N12155 1943 66 WP MM NOT_NAMED 1943-10-02 09:00:00 NR 29.0000 138.000 main 533 452 __________O___ -1 29.0000 138.000 4 19 0
1943270N12155 1943 66 WP MM NOT_NAMED 1943-10-02 12:00:00 NR 29.8381 138.005 main 452 379 __________P___ -1 29.8381 138.005 4 17 3
1943270N12155 1943 66 WP MM NOT_NAMED 1943-10-02 15:00:00 NR 30.6816 138.106 main 370 308 __________P___ -1 30.6816 138.106 4 18 9
1943270N12155 1943 66 WP MM NOT_NAMED 1943-10-02 18:00:00 NR 31.6343 138.328 main 308 212 __________P___ -1 31.6343 138.328 4 22 13
1943270N12155 1943 66 WP MM NOT_NAMED 1943-10-02 21:00:00 NR 32.8000 138.700 main 200 43 __________O___ -1 32.8000 138.700 4 28 14
1943270N12155 1943 66 WP MM NOT_NAMED 1943-10-03 00:00:00 NR 34.3471 139.158 main 48 0 __________P___ -1 34.3471 139.158 4 34 15
1943270N12155 1943 66 WP MM NOT_NAMED 1943-10-03 03:00:00 NR 36.1010 139.796 main 0 0 __________P___ -1 36.1010 139.796 4 38 18
1943270N12155 1943 66 WP MM NOT_NAMED 1943-10-03 06:00:00 NR 37.9294 140.635 main 0 0 __________P___ -1 37.9294 140.635 4 39 23
1943270N12155 1943 66 WP MM NOT_NAMED 1943-10-03 09:00:00 NR 39.7000 141.700 main 0 0 __________O___ -1 39.7000 141.700 4 39 29
1943270N12155 1943 66 WP MM NOT_NAMED 1943-10-03 12:00:00 NR 41.3796 143.080 main 56 11 __________P___ -1 41.3796 143.080 4 39 35
1943270N12155 1943 66 WP MM NOT_NAMED 1943-10-03 15:00:00 NR 42.9483 144.695 main 8 0 __________P___ -1 42.9483 144.695 4 38 40
1943270N12155 1943 66 WP MM NOT_NAMED 1943-10-03 18:00:00 NR 44.3158 146.394 main 7 0 __________P___ -1 44.3158 146.394 4 34 44
1943270N12155 1943 66 WP MM NOT_NAMED 1943-10-03 21:00:00 NR 45.4000 148.000 main 11 11 __________O___ -1 45.4000 148.000 4 27 49
1943270N12155 1943 66 WP MM NOT_NAMED 1943-10-04 00:00:00 NR 46.1197 149.317 main 40 36 __________P___ -1 46.1197 149.317 4 21 55
1943270N12155 1943 66 WP MM NOT_NAMED 1943-10-04 03:00:00 NR 46.5800 150.455 main 56 56 __________P___ -1 46.5800 150.455 4 16 62
1943270N12155 1943 66 WP MM NOT_NAMED 1943-10-04 06:00:00 NR 46.9010 151.437 main 117 117 __________P___ -1 46.9010 151.437 4 14 64
1943270N12155 1943 66 WP MM NOT_NAMED 1943-10-04 09:00:00 NR 47.2000 152.300 main 189 189 __________O___ -1 47.2000 152.300 4 13 59
1943270N12155 1943 66 WP MM NOT_NAMED 1943-10-04 12:00:00 NR 47.5695 153.082 main 263 250 __________P___ -1 47.5695 153.082 4 13 52
1943270N12155 1943 66 WP MM NOT_NAMED 1943-10-04 15:00:00 NR 48.0089 153.811 main 250 178 __________P___ -1 48.0089 153.811 4 13 46
1943270N12155 1943 66 WP MM NOT_NAMED 1943-10-04 18:00:00 NR 48.4941 154.510 main 178 111 __________P___ -1 48.4941 154.510 4 13 43
1943270N12155 1943 66 WP MM NOT_NAMED 1943-10-04 21:00:00 NR 49.0000 155.200 main 111 __________O___ -1 49.0000 155.200 4 14 42

デジタル台風データ・検索

IBTrACS Databaseについて

本データベースは、米国NOAAが公開する1842年以降の世界の熱帯低気圧のベストトラックデータアーカイブInternational Best Track Archive for Climate Stewardship (IBTrACS)を、ウェブで閲覧しやすい形式に変換したものです。

最終更新日:2021-11-26